sensor_id;sensor_type;location;lat;lon;timestamp;temperature;humidity
22795;DHT22;11564;50.920;11.612;2023-04-07T00:00:28;-0.80;99.90
22795;DHT22;11564;50.920;11.612;2023-04-07T00:02:54;-0.80;99.90
22795;DHT22;11564;50.920;11.612;2023-04-07T00:05:20;-0.80;99.90
22795;DHT22;11564;50.920;11.612;2023-04-07T00:07:45;-0.80;99.90
22795;DHT22;11564;50.920;11.612;2023-04-07T00:10:11;-0.80;99.90
22795;DHT22;11564;50.920;11.612;2023-04-07T00:12:36;-0.90;99.90
22795;DHT22;11564;50.920;11.612;2023-04-07T00:15:02;-0.90;99.90
22795;DHT22;11564;50.920;11.612;2023-04-07T00:17:28;-0.90;99.90
22795;DHT22;11564;50.920;11.612;2023-04-07T00:19:54;-0.90;99.90
22795;DHT22;11564;50.920;11.612;2023-04-07T00:22:19;-1.00;99.90
22795;DHT22;11564;50.920;11.612;2023-04-07T00:24:45;-1.00;99.90
22795;DHT22;11564;50.920;11.612;2023-04-07T00:27:10;-1.00;99.90
22795;DHT22;11564;50.920;11.612;2023-04-07T00:29:36;-1.10;99.90
22795;DHT22;11564;50.920;11.612;2023-04-07T00:32:02;-1.10;99.90
22795;DHT22;11564;50.920;11.612;2023-04-07T00:34:27;-1.10;99.90
22795;DHT22;11564;50.920;11.612;2023-04-07T00:36:53;-1.20;99.90
22795;DHT22;11564;50.920;11.612;2023-04-07T00:39:19;-1.20;99.90
22795;DHT22;11564;50.920;11.612;2023-04-07T00:41:46;-1.20;99.90
22795;DHT22;11564;50.920;11.612;2023-04-07T00:44:12;-1.20;99.90
22795;DHT22;11564;50.920;11.612;2023-04-07T00:46:38;-1.20;99.90
22795;DHT22;11564;50.920;11.612;2023-04-07T00:49:05;-1.30;99.90
22795;DHT22;11564;50.920;11.612;2023-04-07T00:51:31;-1.30;99.90
22795;DHT22;11564;50.920;11.612;2023-04-07T00:53:57;-1.30;99.90
22795;DHT22;11564;50.920;11.612;2023-04-07T00:56:23;-1.30;99.90
22795;DHT22;11564;50.920;11.612;2023-04-07T00:58:49;-1.40;99.90
22795;DHT22;11564;50.920;11.612;2023-04-07T01:01:52;-1.40;99.90
22795;DHT22;11564;50.920;11.612;2023-04-07T01:04:33;-1.40;99.90
22795;DHT22;11564;50.920;11.612;2023-04-07T01:07:10;-1.40;99.90
22795;DHT22;11564;50.920;11.612;2023-04-07T01:09:45;-1.50;99.90
22795;DHT22;11564;50.920;11.612;2023-04-07T01:12:14;-1.50;99.90
22795;DHT22;11564;50.920;11.612;2023-04-07T01:14:49;-1.50;99.90
22795;DHT22;11564;50.920;11.612;2023-04-07T01:17:16;-1.50;99.90
22795;DHT22;11564;50.920;11.612;2023-04-07T01:19:47;-1.60;99.90
22795;DHT22;11564;50.920;11.612;2023-04-07T01:22:17;-1.60;99.90
22795;DHT22;11564;50.920;11.612;2023-04-07T01:30:17;-1.70;99.90
22795;DHT22;11564;50.920;11.612;2023-04-07T01:32:47;-1.70;99.90
22795;DHT22;11564;50.920;11.612;2023-04-07T01:35:15;-1.70;99.90
22795;DHT22;11564;50.920;11.612;2023-04-07T01:37:42;-1.80;99.90
22795;DHT22;11564;50.920;11.612;2023-04-07T01:40:11;-1.80;99.90
22795;DHT22;11564;50.920;11.612;2023-04-07T01:42:37;-1.80;99.90
22795;DHT22;11564;50.920;11.612;2023-04-07T01:45:05;-1.90;99.90
22795;DHT22;11564;50.920;11.612;2023-04-07T01:47:33;-1.90;99.90
22795;DHT22;11564;50.920;11.612;2023-04-07T01:50:02;-1.90;99.90
22795;DHT22;11564;50.920;11.612;2023-04-07T01:52:38;-1.90;99.90
22795;DHT22;11564;50.920;11.612;2023-04-07T01:55:05;-2.00;99.90
22795;DHT22;11564;50.920;11.612;2023-04-07T01:57:31;-2.00;99.90
22795;DHT22;11564;50.920;11.612;2023-04-07T01:59:57;-2.00;99.90
22795;DHT22;11564;50.920;11.612;2023-04-07T02:02:23;-2.00;99.90
22795;DHT22;11564;50.920;11.612;2023-04-07T02:04:55;-2.00;99.90
22795;DHT22;11564;50.920;11.612;2023-04-07T02:10:11;-2.10;99.90
22795;DHT22;11564;50.920;11.612;2023-04-07T02:12:38;-2.10;99.90
22795;DHT22;11564;50.920;11.612;2023-04-07T02:15:07;-2.10;99.90
22795;DHT22;11564;50.920;11.612;2023-04-07T02:17:37;-2.10;99.90
22795;DHT22;11564;50.920;11.612;2023-04-07T02:20:06;-2.10;99.90
22795;DHT22;11564;50.920;11.612;2023-04-07T02:22:32;-2.20;99.90
22795;DHT22;11564;50.920;11.612;2023-04-07T02:24:58;-2.20;99.90
22795;DHT22;11564;50.920;11.612;2023-04-07T02:27:23;-2.20;99.90
22795;DHT22;11564;50.920;11.612;2023-04-07T02:29:49;-2.20;99.90
22795;DHT22;11564;50.920;11.612;2023-04-07T02:32:15;-2.20;99.90
22795;DHT22;11564;50.920;11.612;2023-04-07T02:34:42;-2.20;99.90
22795;DHT22;11564;50.920;11.612;2023-04-07T02:37:08;-2.30;99.90
22795;DHT22;11564;50.920;11.612;2023-04-07T02:39:33;-2.20;99.90
22795;DHT22;11564;50.920;11.612;2023-04-07T02:41:59;-2.30;99.90
22795;DHT22;11564;50.920;11.612;2023-04-07T02:44:24;-2.20;99.90
22795;DHT22;11564;50.920;11.612;2023-04-07T02:46:50;-2.20;99.90
22795;DHT22;11564;50.920;11.612;2023-04-07T02:49:16;-2.10;99.90
22795;DHT22;11564;50.920;11.612;2023-04-07T02:51:41;-2.20;99.90
22795;DHT22;11564;50.920;11.612;2023-04-07T02:54:07;-2.10;99.90
22795;DHT22;11564;50.920;11.612;2023-04-07T02:56:33;-2.10;99.90
22795;DHT22;11564;50.920;11.612;2023-04-07T02:58:58;-2.10;99.90
22795;DHT22;11564;50.920;11.612;2023-04-07T03:01:24;-2.30;99.90
22795;DHT22;11564;50.920;11.612;2023-04-07T03:03:50;-2.40;99.90
22795;DHT22;11564;50.920;11.612;2023-04-07T03:06:15;-2.40;99.90
22795;DHT22;11564;50.920;11.612;2023-04-07T03:08:41;-2.40;99.90
22795;DHT22;11564;50.920;11.612;2023-04-07T03:11:06;-2.30;99.90
22795;DHT22;11564;50.920;11.612;2023-04-07T03:13:32;-2.40;99.90
22795;DHT22;11564;50.920;11.612;2023-04-07T03:15:58;-2.40;99.90
22795;DHT22;11564;50.920;11.612;2023-04-07T03:18:23;-2.50;99.90
22795;DHT22;11564;50.920;11.612;2023-04-07T03:20:49;-2.50;99.90
22795;DHT22;11564;50.920;11.612;2023-04-07T03:23:17;-2.40;99.90
22795;DHT22;11564;50.920;11.612;2023-04-07T03:25:43;-2.50;99.90
22795;DHT22;11564;50.920;11.612;2023-04-07T03:28:08;-2.50;99.90
22795;DHT22;11564;50.920;11.612;2023-04-07T03:30:36;-2.50;99.90
22795;DHT22;11564;50.920;11.612;2023-04-07T03:33:01;-2.60;99.90
22795;DHT22;11564;50.920;11.612;2023-04-07T03:35:27;-2.60;99.90
22795;DHT22;11564;50.920;11.612;2023-04-07T03:37:53;-2.60;99.90
22795;DHT22;11564;50.920;11.612;2023-04-07T03:40:18;-2.70;99.90
22795;DHT22;11564;50.920;11.612;2023-04-07T03:42:44;-2.70;99.90
22795;DHT22;11564;50.920;11.612;2023-04-07T03:45:11;-2.70;99.90
22795;DHT22;11564;50.920;11.612;2023-04-07T03:47:36;-2.70;99.90
22795;DHT22;11564;50.920;11.612;2023-04-07T03:50:02;-2.70;99.90
22795;DHT22;11564;50.920;11.612;2023-04-07T03:52:28;-2.60;99.90
22795;DHT22;11564;50.920;11.612;2023-04-07T03:54:53;-2.60;99.90
22795;DHT22;11564;50.920;11.612;2023-04-07T03:57:19;-2.60;99.90
22795;DHT22;11564;50.920;11.612;2023-04-07T03:59:46;-2.60;99.90
22795;DHT22;11564;50.920;11.612;2023-04-07T04:02:15;-2.60;99.90
22795;DHT22;11564;50.920;11.612;2023-04-07T04:04:41;-2.70;99.90
22795;DHT22;11564;50.920;11.612;2023-04-07T04:07:07;-2.70;99.90
22795;DHT22;11564;50.920;11.612;2023-04-07T04:09:32;-2.70;99.90
22795;DHT22;11564;50.920;11.612;2023-04-07T04:11:58;-2.80;99.90
22795;DHT22;11564;50.920;11.612;2023-04-07T04:14:23;-2.80;99.90
22795;DHT22;11564;50.920;11.612;2023-04-07T04:16:49;-2.80;99.90
22795;DHT22;11564;50.920;11.612;2023-04-07T04:19:15;-2.80;99.90
22795;DHT22;11564;50.920;11.612;2023-04-07T04:21:40;-2.80;99.90
22795;DHT22;11564;50.920;11.612;2023-04-07T04:24:06;-2.80;99.90
22795;DHT22;11564;50.920;11.612;2023-04-07T04:26:32;-2.90;99.90
22795;DHT22;11564;50.920;11.612;2023-04-07T04:28:57;-2.80;99.90
22795;DHT22;11564;50.920;11.612;2023-04-07T04:31:23;-2.90;99.90
22795;DHT22;11564;50.920;11.612;2023-04-07T04:33:48;-2.90;99.90
22795;DHT22;11564;50.920;11.612;2023-04-07T04:36:14;-3.00;99.90
22795;DHT22;11564;50.920;11.612;2023-04-07T04:38:40;-2.90;99.90
22795;DHT22;11564;50.920;11.612;2023-04-07T04:41:06;-2.90;99.90
22795;DHT22;11564;50.920;11.612;2023-04-07T04:43:31;-2.90;99.90
22795;DHT22;11564;50.920;11.612;2023-04-07T04:45:57;-2.80;99.90
22795;DHT22;11564;50.920;11.612;2023-04-07T04:48:23;-2.90;99.90
22795;DHT22;11564;50.920;11.612;2023-04-07T04:50:49;-2.80;99.90
22795;DHT22;11564;50.920;11.612;2023-04-07T04:53:14;-2.80;99.90
22795;DHT22;11564;50.920;11.612;2023-04-07T04:55:40;-2.80;99.90
22795;DHT22;11564;50.920;11.612;2023-04-07T04:58:08;-2.70;99.90
22795;DHT22;11564;50.920;11.612;2023-04-07T05:00:34;-2.70;99.90
22795;DHT22;11564;50.920;11.612;2023-04-07T05:02:59;-2.60;99.90
22795;DHT22;11564;50.920;11.612;2023-04-07T05:05:25;-2.60;99.90
22795;DHT22;11564;50.920;11.612;2023-04-07T05:07:51;-2.60;99.90
22795;DHT22;11564;50.920;11.612;2023-04-07T05:10:16;-2.70;99.90
22795;DHT22;11564;50.920;11.612;2023-04-07T05:12:42;-2.70;99.90
22795;DHT22;11564;50.920;11.612;2023-04-07T05:15:08;-2.70;99.90
22795;DHT22;11564;50.920;11.612;2023-04-07T05:17:33;-2.60;99.90
22795;DHT22;11564;50.920;11.612;2023-04-07T05:19:59;-2.50;99.90
22795;DHT22;11564;50.920;11.612;2023-04-07T05:22:25;-2.40;99.90
22795;DHT22;11564;50.920;11.612;2023-04-07T05:24:50;-2.40;99.90
22795;DHT22;11564;50.920;11.612;2023-04-07T05:27:16;-2.30;99.90
22795;DHT22;11564;50.920;11.612;2023-04-07T05:29:42;-2.20;99.90
22795;DHT22;11564;50.920;11.612;2023-04-07T05:32:07;-2.00;99.90
22795;DHT22;11564;50.920;11.612;2023-04-07T05:34:33;-1.90;99.90
22795;DHT22;11564;50.920;11.612;2023-04-07T05:36:58;-1.80;99.90
22795;DHT22;11564;50.920;11.612;2023-04-07T05:39:24;-1.70;99.90
22795;DHT22;11564;50.920;11.612;2023-04-07T05:41:51;-1.60;99.90
22795;DHT22;11564;50.920;11.612;2023-04-07T05:44:16;-1.40;99.90
22795;DHT22;11564;50.920;11.612;2023-04-07T05:46:42;-1.20;99.90
22795;DHT22;11564;50.920;11.612;2023-04-07T05:49:07;-1.10;99.90
22795;DHT22;11564;50.920;11.612;2023-04-07T05:51:33;-1.00;99.90
22795;DHT22;11564;50.920;11.612;2023-04-07T05:54:01;-1.10;99.90
22795;DHT22;11564;50.920;11.612;2023-04-07T05:56:28;-1.00;99.90
22795;DHT22;11564;50.920;11.612;2023-04-07T05:58:53;-0.90;99.90
22795;DHT22;11564;50.920;11.612;2023-04-07T06:01:19;-0.80;99.90
22795;DHT22;11564;50.920;11.612;2023-04-07T06:03:45;-0.60;99.90
22795;DHT22;11564;50.920;11.612;2023-04-07T06:06:11;-0.40;99.90
22795;DHT22;11564;50.920;11.612;2023-04-07T06:08:36;-0.20;99.90
22795;DHT22;11564;50.920;11.612;2023-04-07T06:11:02;-0.10;99.90
22795;DHT22;11564;50.920;11.612;2023-04-07T06:13:27;-0.20;99.90
22795;DHT22;11564;50.920;11.612;2023-04-07T06:15:56;0.00;99.90
22795;DHT22;11564;50.920;11.612;2023-04-07T06:18:22;-0.10;99.90
22795;DHT22;11564;50.920;11.612;2023-04-07T06:20:48;-0.20;99.90
22795;DHT22;11564;50.920;11.612;2023-04-07T06:23:14;0.00;99.90
22795;DHT22;11564;50.920;11.612;2023-04-07T06:25:39;0.20;99.90
22795;DHT22;11564;50.920;11.612;2023-04-07T06:28:05;0.10;99.90
22795;DHT22;11564;50.920;11.612;2023-04-07T06:30:31;0.20;99.90
22795;DHT22;11564;50.920;11.612;2023-04-07T06:32:56;0.20;99.90
22795;DHT22;11564;50.920;11.612;2023-04-07T06:35:22;0.30;99.90
22795;DHT22;11564;50.920;11.612;2023-04-07T06:37:51;0.50;99.90
22795;DHT22;11564;50.920;11.612;2023-04-07T06:40:17;0.70;99.90
22795;DHT22;11564;50.920;11.612;2023-04-07T06:42:42;1.00;99.90
22795;DHT22;11564;50.920;11.612;2023-04-07T06:45:08;1.00;99.90
22795;DHT22;11564;50.920;11.612;2023-04-07T06:47:34;1.20;99.90
22795;DHT22;11564;50.920;11.612;2023-04-07T06:50:00;1.40;99.90
22795;DHT22;11564;50.920;11.612;2023-04-07T06:52:25;1.70;99.90
22795;DHT22;11564;50.920;11.612;2023-04-07T06:54:51;1.70;99.90
22795;DHT22;11564;50.920;11.612;2023-04-07T06:57:17;1.50;99.90
22795;DHT22;11564;50.920;11.612;2023-04-07T06:59:42;1.90;99.90
22795;DHT22;11564;50.920;11.612;2023-04-07T07:02:08;2.10;99.90
22795;DHT22;11564;50.920;11.612;2023-04-07T07:04:34;2.40;99.90
22795;DHT22;11564;50.920;11.612;2023-04-07T07:06:59;2.70;99.90
22795;DHT22;11564;50.920;11.612;2023-04-07T07:09:25;2.90;99.90
22795;DHT22;11564;50.920;11.612;2023-04-07T07:11:52;2.90;99.90
22795;DHT22;11564;50.920;11.612;2023-04-07T07:14:17;3.10;99.90
22795;DHT22;11564;50.920;11.612;2023-04-07T07:16:43;2.80;99.90
22795;DHT22;11564;50.920;11.612;2023-04-07T07:19:09;2.80;99.90
22795;DHT22;11564;50.920;11.612;2023-04-07T07:21:35;3.00;99.90
22795;DHT22;11564;50.920;11.612;2023-04-07T07:24:01;2.70;99.90
22795;DHT22;11564;50.920;11.612;2023-04-07T07:26:28;2.70;99.90
22795;DHT22;11564;50.920;11.612;2023-04-07T07:28:55;3.00;99.90
22795;DHT22;11564;50.920;11.612;2023-04-07T07:31:21;3.10;99.90
22795;DHT22;11564;50.920;11.612;2023-04-07T07:33:46;3.40;99.90
22795;DHT22;11564;50.920;11.612;2023-04-07T07:36:14;3.10;99.90
22795;DHT22;11564;50.920;11.612;2023-04-07T07:38:39;3.20;99.90
22795;DHT22;11564;50.920;11.612;2023-04-07T07:41:06;3.50;99.90
22795;DHT22;11564;50.920;11.612;2023-04-07T07:43:32;3.80;99.90
22795;DHT22;11564;50.920;11.612;2023-04-07T07:45:58;3.60;99.90
22795;DHT22;11564;50.920;11.612;2023-04-07T07:48:23;3.30;99.90
22795;DHT22;11564;50.920;11.612;2023-04-07T07:50:50;3.50;99.90
22795;DHT22;11564;50.920;11.612;2023-04-07T07:53:16;3.70;99.90
22795;DHT22;11564;50.920;11.612;2023-04-07T07:55:42;3.70;99.90
22795;DHT22;11564;50.920;11.612;2023-04-07T07:58:08;3.70;99.90
22795;DHT22;11564;50.920;11.612;2023-04-07T08:00:33;3.90;99.90
22795;DHT22;11564;50.920;11.612;2023-04-07T08:02:59;4.20;99.90
22795;DHT22;11564;50.920;11.612;2023-04-07T08:05:25;3.90;99.90
22795;DHT22;11564;50.920;11.612;2023-04-07T08:07:52;4.20;99.90
22795;DHT22;11564;50.920;11.612;2023-04-07T08:10:17;4.30;99.90
22795;DHT22;11564;50.920;11.612;2023-04-07T08:12:44;4.80;99.90
22795;DHT22;11564;50.920;11.612;2023-04-07T08:15:10;4.80;99.90
22795;DHT22;11564;50.920;11.612;2023-04-07T08:17:36;5.10;99.80
22795;DHT22;11564;50.920;11.612;2023-04-07T08:20:02;5.30;99.60
22795;DHT22;11564;50.920;11.612;2023-04-07T08:22:28;5.40;98.90
22795;DHT22;11564;50.920;11.612;2023-04-07T08:24:54;5.70;97.50
22795;DHT22;11564;50.920;11.612;2023-04-07T08:27:19;5.80;97.40
22795;DHT22;11564;50.920;11.612;2023-04-07T08:29:50;6.10;97.20
22795;DHT22;11564;50.920;11.612;2023-04-07T08:32:22;6.40;96.80
22795;DHT22;11564;50.920;11.612;2023-04-07T08:34:48;6.70;96.60
22795;DHT22;11564;50.920;11.612;2023-04-07T08:37:13;6.80;96.00
22795;DHT22;11564;50.920;11.612;2023-04-07T08:39:39;6.60;95.80
22795;DHT22;11564;50.920;11.612;2023-04-07T08:42:06;6.60;95.50
22795;DHT22;11564;50.920;11.612;2023-04-07T08:44:33;6.90;95.50
22795;DHT22;11564;50.920;11.612;2023-04-07T08:47:03;7.20;95.50
22795;DHT22;11564;50.920;11.612;2023-04-07T08:49:32;7.10;94.90
22795;DHT22;11564;50.920;11.612;2023-04-07T08:52:03;7.30;95.00
22795;DHT22;11564;50.920;11.612;2023-04-07T08:54:30;7.40;94.50
22795;DHT22;11564;50.920;11.612;2023-04-07T08:56:58;7.60;94.00
22795;DHT22;11564;50.920;11.612;2023-04-07T08:59:26;7.80;93.90
22795;DHT22;11564;50.920;11.612;2023-04-07T09:01:54;7.70;93.30
22795;DHT22;11564;50.920;11.612;2023-04-07T09:04:19;7.80;93.30
22795;DHT22;11564;50.920;11.612;2023-04-07T09:06:48;8.20;93.40
22795;DHT22;11564;50.920;11.612;2023-04-07T09:09:13;8.50;93.30
22795;DHT22;11564;50.920;11.612;2023-04-07T09:11:39;8.60;92.80
22795;DHT22;11564;50.920;11.612;2023-04-07T09:14:05;8.50;91.60
22795;DHT22;11564;50.920;11.612;2023-04-07T09:16:32;8.40;91.30
22795;DHT22;11564;50.920;11.612;2023-04-07T09:18:58;8.60;91.30
22795;DHT22;11564;50.920;11.612;2023-04-07T09:21:24;8.90;91.60
22795;DHT22;11564;50.920;11.612;2023-04-07T09:23:49;9.30;91.10
22795;DHT22;11564;50.920;11.612;2023-04-07T09:26:25;9.50;90.70
22795;DHT22;11564;50.920;11.612;2023-04-07T09:28:59;9.70;90.30
22795;DHT22;11564;50.920;11.612;2023-04-07T09:31:47;9.80;90.10
22795;DHT22;11564;50.920;11.612;2023-04-07T09:34:28;10.10;87.40
22795;DHT22;11564;50.920;11.612;2023-04-07T09:36:54;10.00;84.90
22795;DHT22;11564;50.920;11.612;2023-04-07T09:39:21;10.10;84.80
22795;DHT22;11564;50.920;11.612;2023-04-07T09:41:47;10.30;84.70
22795;DHT22;11564;50.920;11.612;2023-04-07T09:44:13;10.50;82.10
22795;DHT22;11564;50.920;11.612;2023-04-07T09:46:52;10.50;81.20
22795;DHT22;11564;50.920;11.612;2023-04-07T09:49:18;10.90;79.70
22795;DHT22;11564;50.920;11.612;2023-04-07T09:51:54;11.40;78.00
22795;DHT22;11564;50.920;11.612;2023-04-07T09:54:32;11.90;74.40
22795;DHT22;11564;50.920;11.612;2023-04-07T09:56:59;12.10;72.00
22795;DHT22;11564;50.920;11.612;2023-04-07T09:59:27;12.40;70.10
22795;DHT22;11564;50.920;11.612;2023-04-07T10:01:53;12.70;71.00
22795;DHT22;11564;50.920;11.612;2023-04-07T10:04:19;12.90;69.50
22795;DHT22;11564;50.920;11.612;2023-04-07T10:06:46;12.90;67.20
22795;DHT22;11564;50.920;11.612;2023-04-07T10:09:12;13.00;68.60
22795;DHT22;11564;50.920;11.612;2023-04-07T10:11:40;13.20;66.00
22795;DHT22;11564;50.920;11.612;2023-04-07T10:14:08;13.30;63.70
22795;DHT22;11564;50.920;11.612;2023-04-07T10:16:34;13.40;65.10
22795;DHT22;11564;50.920;11.612;2023-04-07T10:19:00;13.60;66.10
22795;DHT22;11564;50.920;11.612;2023-04-07T10:21:27;13.80;63.40
22795;DHT22;11564;50.920;11.612;2023-04-07T10:23:59;13.80;64.40
22795;DHT22;11564;50.920;11.612;2023-04-07T10:26:31;14.00;64.40
22795;DHT22;11564;50.920;11.612;2023-04-07T10:29:03;14.10;63.40
22795;DHT22;11564;50.920;11.612;2023-04-07T10:31:30;14.20;61.50
22795;DHT22;11564;50.920;11.612;2023-04-07T10:33:56;14.00;59.00
22795;DHT22;11564;50.920;11.612;2023-04-07T10:36:22;14.00;60.90
22795;DHT22;11564;50.920;11.612;2023-04-07T10:41:39;14.30;59.70
22795;DHT22;11564;50.920;11.612;2023-04-07T10:44:07;14.40;59.80
22795;DHT22;11564;50.920;11.612;2023-04-07T10:49:14;14.60;56.90
22795;DHT22;11564;50.920;11.612;2023-04-07T10:51:41;14.70;58.70
22795;DHT22;11564;50.920;11.612;2023-04-07T10:54:16;14.90;57.90
22795;DHT22;11564;50.920;11.612;2023-04-07T10:59:33;14.70;58.60
22795;DHT22;11564;50.920;11.612;2023-04-07T11:04:37;14.90;58.90
22795;DHT22;11564;50.920;11.612;2023-04-07T11:07:03;15.00;56.70
22795;DHT22;11564;50.920;11.612;2023-04-07T11:09:29;15.00;56.00
22795;DHT22;11564;50.920;11.612;2023-04-07T11:11:54;14.90;54.00
22795;DHT22;11564;50.920;11.612;2023-04-07T11:14:31;14.00;54.40
22795;DHT22;11564;50.920;11.612;2023-04-07T11:16:58;14.40;58.40
22795;DHT22;11564;50.920;11.612;2023-04-07T11:19:24;14.60;58.70
22795;DHT22;11564;50.920;11.612;2023-04-07T11:22:14;14.90;58.60
22795;DHT22;11564;50.920;11.612;2023-04-07T11:24:40;15.20;56.80
22795;DHT22;11564;50.920;11.612;2023-04-07T11:27:11;15.40;58.00
22795;DHT22;11564;50.920;11.612;2023-04-07T11:29:37;15.30;57.80
22795;DHT22;11564;50.920;11.612;2023-04-07T11:32:03;15.40;58.90
22795;DHT22;11564;50.920;11.612;2023-04-07T11:34:30;15.60;57.90
22795;DHT22;11564;50.920;11.612;2023-04-07T11:36:56;15.80;58.60
22795;DHT22;11564;50.920;11.612;2023-04-07T11:39:25;15.90;58.10
22795;DHT22;11564;50.920;11.612;2023-04-07T11:41:56;16.00;55.20
22795;DHT22;11564;50.920;11.612;2023-04-07T11:44:21;15.90;54.00
22795;DHT22;11564;50.920;11.612;2023-04-07T11:47:00;16.00;55.10
22795;DHT22;11564;50.920;11.612;2023-04-07T11:49:28;15.90;52.80
22795;DHT22;11564;50.920;11.612;2023-04-07T11:52:01;15.70;54.00
22795;DHT22;11564;50.920;11.612;2023-04-07T11:54:41;15.90;56.50
22795;DHT22;11564;50.920;11.612;2023-04-07T11:57:07;16.00;56.10
22795;DHT22;11564;50.920;11.612;2023-04-07T11:59:34;15.90;50.80
22795;DHT22;11564;50.920;11.612;2023-04-07T12:02:00;15.50;51.80
22795;DHT22;11564;50.920;11.612;2023-04-07T12:04:26;15.60;56.10
22795;DHT22;11564;50.920;11.612;2023-04-07T12:06:52;15.70;56.50
22795;DHT22;11564;50.920;11.612;2023-04-07T12:09:29;15.80;57.20
22795;DHT22;11564;50.920;11.612;2023-04-07T12:11:56;16.10;56.30
22795;DHT22;11564;50.920;11.612;2023-04-07T12:14:22;16.20;55.50
22795;DHT22;11564;50.920;11.612;2023-04-07T12:16:49;16.30;55.60
22795;DHT22;11564;50.920;11.612;2023-04-07T12:19:15;16.10;55.60
22795;DHT22;11564;50.920;11.612;2023-04-07T12:21:40;15.90;53.20
22795;DHT22;11564;50.920;11.612;2023-04-07T12:24:06;15.90;54.00
22795;DHT22;11564;50.920;11.612;2023-04-07T12:26:32;16.20;56.10
22795;DHT22;11564;50.920;11.612;2023-04-07T12:28:58;16.20;56.20
22795;DHT22;11564;50.920;11.612;2023-04-07T12:31:32;16.30;56.70
22795;DHT22;11564;50.920;11.612;2023-04-07T12:33:58;16.40;54.70
22795;DHT22;11564;50.920;11.612;2023-04-07T12:36:24;16.60;56.70
22795;DHT22;11564;50.920;11.612;2023-04-07T12:38:54;16.70;55.50
22795;DHT22;11564;50.920;11.612;2023-04-07T12:41:20;16.80;56.20
22795;DHT22;11564;50.920;11.612;2023-04-07T12:43:46;16.40;55.20
22795;DHT22;11564;50.920;11.612;2023-04-07T12:46:11;16.40;56.60
22795;DHT22;11564;50.920;11.612;2023-04-07T12:48:37;16.20;55.10
22795;DHT22;11564;50.920;11.612;2023-04-07T12:51:03;16.20;55.60
22795;DHT22;11564;50.920;11.612;2023-04-07T12:53:29;16.50;55.00
22795;DHT22;11564;50.920;11.612;2023-04-07T12:55:54;16.60;55.70
22795;DHT22;11564;50.920;11.612;2023-04-07T12:58:21;15.40;53.00
22795;DHT22;11564;50.920;11.612;2023-04-07T13:00:46;15.60;54.90
22795;DHT22;11564;50.920;11.612;2023-04-07T13:03:13;16.10;55.20
22795;DHT22;11564;50.920;11.612;2023-04-07T13:05:38;18.90;53.70
22795;DHT22;11564;50.920;11.612;2023-04-07T13:08:04;22.10;50.10
22795;DHT22;11564;50.920;11.612;2023-04-07T13:10:30;23.70;48.60
22795;DHT22;11564;50.920;11.612;2023-04-07T13:12:56;24.40;47.00
22795;DHT22;11564;50.920;11.612;2023-04-07T13:15:21;26.60;44.60
22795;DHT22;11564;50.920;11.612;2023-04-07T13:17:47;27.10;41.60
22795;DHT22;11564;50.920;11.612;2023-04-07T13:20:13;28.70;40.20
22795;DHT22;11564;50.920;11.612;2023-04-07T13:22:38;29.40;40.40
22795;DHT22;11564;50.920;11.612;2023-04-07T13:25:04;30.40;38.00
22795;DHT22;11564;50.920;11.612;2023-04-07T13:27:30;31.80;36.40
22795;DHT22;11564;50.920;11.612;2023-04-07T13:29:56;31.80;35.70
22795;DHT22;11564;50.920;11.612;2023-04-07T13:32:21;32.80;34.60
22795;DHT22;11564;50.920;11.612;2023-04-07T13:34:48;32.90;32.90
22795;DHT22;11564;50.920;11.612;2023-04-07T13:37:14;31.00;33.10
22795;DHT22;11564;50.920;11.612;2023-04-07T13:39:40;30.90;34.20
22795;DHT22;11564;50.920;11.612;2023-04-07T13:42:06;32.70;31.50
22795;DHT22;11564;50.920;11.612;2023-04-07T13:44:34;31.70;31.80
22795;DHT22;11564;50.920;11.612;2023-04-07T13:47:02;31.90;33.80
22795;DHT22;11564;50.920;11.612;2023-04-07T13:49:28;30.70;33.20
22795;DHT22;11564;50.920;11.612;2023-04-07T13:51:54;30.70;33.70
22795;DHT22;11564;50.920;11.612;2023-04-07T13:54:20;31.80;33.20
22795;DHT22;11564;50.920;11.612;2023-04-07T13:56:45;31.90;32.10
22795;DHT22;11564;50.920;11.612;2023-04-07T13:59:13;32.80;33.40
22795;DHT22;11564;50.920;11.612;2023-04-07T14:01:39;34.20;31.90
22795;DHT22;11564;50.920;11.612;2023-04-07T14:04:05;34.10;31.80
22795;DHT22;11564;50.920;11.612;2023-04-07T14:06:31;34.90;29.60
22795;DHT22;11564;50.920;11.612;2023-04-07T14:08:57;35.30;29.90
22795;DHT22;11564;50.920;11.612;2023-04-07T14:11:23;34.30;30.90
22795;DHT22;11564;50.920;11.612;2023-04-07T14:13:50;34.40;29.60
22795;DHT22;11564;50.920;11.612;2023-04-07T14:16:16;36.00;30.10
22795;DHT22;11564;50.920;11.612;2023-04-07T14:18:42;33.60;31.00
22795;DHT22;11564;50.920;11.612;2023-04-07T14:21:08;33.60;30.70
22795;DHT22;11564;50.920;11.612;2023-04-07T14:23:34;34.80;29.90
22795;DHT22;11564;50.920;11.612;2023-04-07T14:26:00;35.60;29.60
22795;DHT22;11564;50.920;11.612;2023-04-07T14:28:26;35.50;29.40
22795;DHT22;11564;50.920;11.612;2023-04-07T14:30:52;35.90;28.90
22795;DHT22;11564;50.920;11.612;2023-04-07T14:33:19;34.60;29.10
22795;DHT22;11564;50.920;11.612;2023-04-07T14:35:45;34.20;29.20
22795;DHT22;11564;50.920;11.612;2023-04-07T14:38:10;32.40;31.00
22795;DHT22;11564;50.920;11.612;2023-04-07T14:40:36;33.40;30.40
22795;DHT22;11564;50.920;11.612;2023-04-07T14:43:02;34.10;29.40
22795;DHT22;11564;50.920;11.612;2023-04-07T14:45:28;34.80;29.10
22795;DHT22;11564;50.920;11.612;2023-04-07T14:47:54;34.20;29.70
22795;DHT22;11564;50.920;11.612;2023-04-07T14:50:20;34.80;29.40
22795;DHT22;11564;50.920;11.612;2023-04-07T14:52:46;34.50;29.20
22795;DHT22;11564;50.920;11.612;2023-04-07T14:55:12;33.70;29.40
22795;DHT22;11564;50.920;11.612;2023-04-07T14:57:37;32.90;29.80
22795;DHT22;11564;50.920;11.612;2023-04-07T15:00:04;33.40;28.90
22795;DHT22;11564;50.920;11.612;2023-04-07T15:02:33;33.60;29.30
22795;DHT22;11564;50.920;11.612;2023-04-07T15:04:59;31.80;29.80
22795;DHT22;11564;50.920;11.612;2023-04-07T15:07:25;32.20;30.20
22795;DHT22;11564;50.920;11.612;2023-04-07T15:09:51;32.60;30.00
22795;DHT22;11564;50.920;11.612;2023-04-07T15:12:16;30.80;30.90
22795;DHT22;11564;50.920;11.612;2023-04-07T15:14:43;28.50;33.10
22795;DHT22;11564;50.920;11.612;2023-04-07T15:17:10;27.60;33.50
22795;DHT22;11564;50.920;11.612;2023-04-07T15:19:36;30.20;32.20
22795;DHT22;11564;50.920;11.612;2023-04-07T15:22:02;31.30;31.00
22795;DHT22;11564;50.920;11.612;2023-04-07T15:24:27;31.90;30.20
22795;DHT22;11564;50.920;11.612;2023-04-07T15:26:53;33.00;30.30
22795;DHT22;11564;50.920;11.612;2023-04-07T15:29:18;32.90;29.90
22795;DHT22;11564;50.920;11.612;2023-04-07T15:31:44;33.80;29.30
22795;DHT22;11564;50.920;11.612;2023-04-07T15:34:10;33.70;29.70
22795;DHT22;11564;50.920;11.612;2023-04-07T15:36:35;32.60;29.90